Terminal Aerodrome Forecast
Issued by NWS

Home | Current Version | Previous Version | Text Only | Print | Product List | Glossary On
Versions: 1 2 3 4 5 6 7 8 9 10 11 12 13 14
595
FTAK31 PAJN 221127
TAFAPG
TAF
PAPG 221127Z 2212/2312 VRB03KT P6SM -SHRA SCT025 BKN040
      TEMPO 2214/2218 6SM -SHRA BR BKN025 OVC040
     FM222000 13005KT 6SM -RA BR BKN025 OVC040 WS020/15030KT
     FM230600 13005KT 5SM -RA BR BKN020 OVC040 WS020/15040KT
      AMD LTD TO CLD VIS AND WIND 2212/2215=

USA.gov is the U.S. government's official web portal to all federal, state and local government web resources and services.